Time;durP1;ratioP1;P1;durP2;ratioP2;P2;SDS_P1;SDS_P2;PMS_P1;PMS_P2;Temp;Humidity;BMP_temperature;BMP_pressure;BME280_temperature;BME280_humidity;BME280_pressure;Samples;Min_cycle;Max_cycle;Signal;HPM_P1;HPM_P2
2020/06/22 00:00:32;;;;;;;1.63;1.51;;;;;;;20.66;55.41;101097.84;;;;-47
2020/06/22 00:03:32;;;;;;;1.53;1.43;;;;;;;20.65;55.40;101101.16;;;;-46
2020/06/22 00:06:32;;;;;;;1.71;1.53;;;;;;;20.65;55.40;101102.84;;;;-47
2020/06/22 00:09:32;;;;;;;1.74;1.59;;;;;;;20.65;55.45;101109.22;;;;-47
2020/06/22 00:12:32;;;;;;;1.69;1.59;;;;;;;20.64;55.44;101112.30;;;;-47
2020/06/22 00:15:32;;;;;;;1.77;1.50;;;;;;;20.63;55.42;101107.38;;;;-47
2020/06/22 00:18:32;;;;;;;1.55;1.37;;;;;;;20.63;55.45;101105.75;;;;-47
2020/06/22 00:21:32;;;;;;;1.51;1.41;;;;;;;20.62;55.47;101105.75;;;;-46
2020/06/22 00:24:32;;;;;;;1.60;1.50;;;;;;;20.62;55.46;101102.05;;;;-46
2020/06/22 00:27:32;;;;;;;2.00;1.50;;;;;;;20.62;55.45;101106.42;;;;-47
2020/06/22 00:30:32;;;;;;;1.69;1.59;;;;;;;20.62;55.41;101106.48;;;;-47
2020/06/22 00:33:32;;;;;;;1.95;1.59;;;;;;;20.62;55.46;101113.42;;;;-47
2020/06/22 00:36:32;;;;;;;1.99;1.58;;;;;;;20.61;55.43;101109.97;;;;-47
2020/06/22 00:39:32;;;;;;;1.51;1.41;;;;;;;20.62;55.46;101110.57;;;;-47
2020/06/22 00:42:32;;;;;;;1.61;1.51;;;;;;;20.60;55.46;101110.42;;;;-47
2020/06/22 00:45:32;;;;;;;1.79;1.58;;;;;;;20.61;55.43;101111.36;;;;-47
2020/06/22 00:48:32;;;;;;;2.21;1.50;;;;;;;20.61;55.45;101110.02;;;;-47
2020/06/22 00:51:32;;;;;;;1.47;1.37;;;;;;;20.60;55.45;101106.98;;;;-47
2020/06/22 00:54:32;;;;;;;1.76;1.61;;;;;;;20.60;55.44;101105.61;;;;-47
2020/06/22 00:57:32;;;;;;;1.83;1.41;;;;;;;20.60;55.47;101107.45;;;;-47
2020/06/22 01:00:32;;;;;;;1.60;1.50;;;;;;;20.58;55.44;101109.14;;;;-47
2020/06/22 01:03:32;;;;;;;1.57;1.47;;;;;;;20.58;55.46;101104.55;;;;-47
2020/06/22 01:06:32;;;;;;;1.73;1.58;;;;;;;20.58;55.49;101101.59;;;;-46
2020/06/22 01:09:32;;;;;;;1.50;1.40;;;;;;;20.59;55.45;101100.35;;;;-47
2020/06/22 01:12:32;;;;;;;1.67;1.57;;;;;;;20.58;55.50;101101.52;;;;-46
2020/06/22 01:15:32;;;;;;;1.50;1.40;;;;;;;20.57;55.49;101098.45;;;;-47
2020/06/22 01:18:32;;;;;;;1.80;1.53;;;;;;;20.58;55.49;101098.63;;;;-47
2020/06/22 01:21:32;;;;;;;1.47;1.37;;;;;;;20.57;55.47;101091.13;;;;-47
2020/06/22 01:24:32;;;;;;;1.57;1.47;;;;;;;20.57;55.47;101091.69;;;;-47
2020/06/22 01:27:32;;;;;;;1.61;1.50;;;;;;;20.57;55.48;101091.19;;;;-46
2020/06/22 01:30:32;;;;;;;1.56;1.46;;;;;;;20.56;55.48;101089.84;;;;-47
2020/06/22 01:33:32;;;;;;;1.57;1.47;;;;;;;20.56;55.46;101091.25;;;;-47
2020/06/22 01:36:32;;;;;;;1.49;1.35;;;;;;;20.55;55.50;101093.55;;;;-47
2020/06/22 01:39:32;;;;;;;1.60;1.50;;;;;;;20.56;55.47;101095.50;;;;-47
2020/06/22 01:42:32;;;;;;;1.67;1.57;;;;;;;20.55;55.47;101096.41;;;;-47
2020/06/22 01:45:32;;;;;;;1.61;1.51;;;;;;;20.56;55.47;101098.63;;;;-47
2020/06/22 01:48:32;;;;;;;1.57;1.47;;;;;;;20.55;55.47;101099.19;;;;-47
2020/06/22 01:51:32;;;;;;;1.53;1.43;;;;;;;20.55;55.51;101103.95;;;;-46
2020/06/22 01:54:32;;;;;;;2.26;1.50;;;;;;;20.55;55.46;101105.29;;;;-47
2020/06/22 01:57:32;;;;;;;1.85;1.43;;;;;;;20.55;55.46;101108.32;;;;-47
2020/06/22 02:00:32;;;;;;;1.63;1.45;;;;;;;20.54;55.49;101110.15;;;;-47
2020/06/22 02:03:32;;;;;;;1.50;1.40;;;;;;;20.54;55.51;101108.37;;;;-47
2020/06/22 02:06:32;;;;;;;1.63;1.52;;;;;;;20.54;55.49;101112.95;;;;-47
2020/06/22 02:09:32;;;;;;;1.50;1.40;;;;;;;20.54;55.53;101119.41;;;;-47
2020/06/22 02:12:32;;;;;;;1.97;1.50;;;;;;;20.53;55.49;101123.52;;;;-46
2020/06/22 02:15:32;;;;;;;1.61;1.50;;;;;;;20.53;55.50;101123.25;;;;-47
2020/06/22 02:18:32;;;;;;;1.60;1.50;;;;;;;20.53;55.50;101128.55;;;;-46
2020/06/22 02:21:32;;;;;;;1.68;1.58;;;;;;;20.53;55.50;101125.16;;;;-47
2020/06/22 02:24:32;;;;;;;1.63;1.53;;;;;;;20.53;55.48;101128.68;;;;-47
2020/06/22 02:27:32;;;;;;;1.53;1.43;;;;;;;20.52;55.49;101128.00;;;;-46
2020/06/22 02:30:32;;;;;;;1.82;1.47;;;;;;;20.52;55.47;101132.03;;;;-47
2020/06/22 02:33:32;;;;;;;1.60;1.50;;;;;;;20.52;55.46;101137.41;;;;-47
2020/06/22 02:36:32;;;;;;;1.60;1.48;;;;;;;20.53;55.51;101139.66;;;;-47
2020/06/22 02:39:32;;;;;;;1.56;1.42;;;;;;;20.51;55.49;101139.42;;;;-47
2020/06/22 02:42:32;;;;;;;1.59;1.49;;;;;;;20.52;55.48;101137.41;;;;-47
2020/06/22 02:45:32;;;;;;;1.60;1.50;;;;;;;20.52;55.48;101136.58;;;;-47
2020/06/22 02:48:32;;;;;;;1.60;1.50;;;;;;;20.52;55.50;101135.07;;;;-47
2020/06/22 02:51:32;;;;;;;1.50;1.40;;;;;;;20.51;55.47;101136.01;;;;-47
2020/06/22 02:54:32;;;;;;;1.41;1.31;;;;;;;20.51;55.50;101135.67;;;;-47
2020/06/22 02:57:32;;;;;;;1.60;1.50;;;;;;;20.51;55.48;101136.68;;;;-47
2020/06/22 03:00:32;;;;;;;1.57;1.41;;;;;;;20.51;55.46;101136.30;;;;-47
2020/06/22 03:03:32;;;;;;;1.58;1.48;;;;;;;20.51;55.50;101136.36;;;;-47
2020/06/22 03:06:32;;;;;;;1.60;1.49;;;;;;;20.50;55.48;101138.87;;;;-46
2020/06/22 03:09:32;;;;;;;1.60;1.48;;;;;;;20.50;55.46;101140.32;;;;-47
2020/06/22 03:12:32;;;;;;;1.61;1.51;;;;;;;20.50;55.45;101143.17;;;;-46
2020/06/22 03:15:32;;;;;;;1.61;1.51;;;;;;;20.50;55.48;101144.85;;;;-47
2020/06/22 03:18:32;;;;;;;1.60;1.50;;;;;;;20.50;55.48;101152.63;;;;-47
2020/06/22 03:21:32;;;;;;;1.60;1.50;;;;;;;20.50;55.44;101156.39;;;;-47
2020/06/22 03:24:32;;;;;;;1.46;1.36;;;;;;;20.50;55.45;101155.11;;;;-47
2020/06/22 03:27:32;;;;;;;1.51;1.41;;;;;;;20.49;55.43;101155.83;;;;-47
2020/06/22 03:30:32;;;;;;;1.65;1.55;;;;;;;20.50;55.41;101160.31;;;;-46
2020/06/22 03:33:32;;;;;;;1.51;1.41;;;;;;;20.49;55.41;101161.14;;;;-47
2020/06/22 03:36:32;;;;;;;1.63;1.53;;;;;;;20.49;55.42;101164.28;;;;-47
2020/06/22 03:39:32;;;;;;;1.61;1.51;;;;;;;20.49;55.40;101164.16;;;;-47
2020/06/22 03:42:32;;;;;;;1.56;1.46;;;;;;;20.49;55.37;101165.16;;;;-46
2020/06/22 03:45:32;;;;;;;1.50;1.40;;;;;;;20.48;55.36;101161.25;;;;-47
2020/06/22 03:48:32;;;;;;;1.50;1.40;;;;;;;20.48;55.40;101165.11;;;;-47
2020/06/22 03:51:32;;;;;;;1.40;1.30;;;;;;;20.48;55.42;101168.20;;;;-47
2020/06/22 03:54:32;;;;;;;1.63;1.53;;;;;;;20.48;55.38;101169.54;;;;-47
2020/06/22 03:57:32;;;;;;;1.53;1.43;;;;;;;20.48;55.36;101172.12;;;;-47
2020/06/22 04:00:32;;;;;;;1.50;1.40;;;;;;;20.48;55.35;101176.75;;;;-47
2020/06/22 04:03:32;;;;;;;1.61;1.51;;;;;;;20.47;55.39;101174.39;;;;-47
2020/06/22 04:06:32;;;;;;;1.47;1.37;;;;;;;20.47;55.37;101180.67;;;;-47
2020/06/22 04:09:32;;;;;;;1.51;1.41;;;;;;;20.48;55.36;101180.51;;;;-47
2020/06/22 04:12:32;;;;;;;1.59;1.49;;;;;;;20.47;55.37;101182.91;;;;-47
2020/06/22 04:15:32;;;;;;;1.55;1.45;;;;;;;20.46;55.36;101179.94;;;;-47
2020/06/22 04:18:32;;;;;;;1.55;1.45;;;;;;;20.46;55.38;101180.05;;;;-47
2020/06/22 04:21:32;;;;;;;1.50;1.40;;;;;;;20.46;55.33;101183.13;;;;-46
2020/06/22 04:24:32;;;;;;;1.50;1.40;;;;;;;20.47;55.34;101176.97;;;;-47
2020/06/22 04:27:32;;;;;;;1.60;1.50;;;;;;;20.47;55.36;101179.82;;;;-47
2020/06/22 04:30:32;;;;;;;1.67;1.41;;;;;;;20.47;55.34;101183.75;;;;-47
2020/06/22 04:33:32;;;;;;;1.55;1.45;;;;;;;20.46;55.34;101177.93;;;;-47
2020/06/22 04:36:32;;;;;;;1.57;1.47;;;;;;;20.47;55.31;101178.21;;;;-47
2020/06/22 04:39:32;;;;;;;1.44;1.34;;;;;;;20.46;55.36;101180.77;;;;-47
2020/06/22 04:42:32;;;;;;;1.57;1.47;;;;;;;20.46;55.30;101188.50;;;;-47
2020/06/22 04:45:32;;;;;;;1.61;1.50;;;;;;;20.46;55.31;101186.64;;;;-47
2020/06/22 04:48:32;;;;;;;1.52;1.42;;;;;;;20.45;55.33;101187.78;;;;-47
2020/06/22 04:51:32;;;;;;;1.53;1.43;;;;;;;20.46;55.29;101188.83;;;;-47
2020/06/22 04:54:32;;;;;;;1.81;1.50;;;;;;;20.45;55.33;101192.75;;;;-47
2020/06/22 04:57:32;;;;;;;1.46;1.36;;;;;;;20.45;55.33;101187.78;;;;-47
2020/06/22 05:00:32;;;;;;;1.56;1.46;;;;;;;20.45;55.33;101189.69;;;;-47
2020/06/22 05:03:32;;;;;;;1.60;1.50;;;;;;;20.45;55.28;101194.14;;;;-47
2020/06/22 05:06:32;;;;;;;1.50;1.40;;;;;;;20.45;55.32;101205.22;;;;-47
2020/06/22 05:09:32;;;;;;;1.56;1.46;;;;;;;20.45;55.34;101211.60;;;;-47
2020/06/22 05:12:32;;;;;;;1.58;1.40;;;;;;;20.45;55.31;101214.45;;;;-47
2020/06/22 05:15:32;;;;;;;1.53;1.43;;;;;;;20.45;55.33;101213.68;;;;-46
2020/06/22 05:18:32;;;;;;;1.50;1.40;;;;;;;20.44;55.28;101218.54;;;;-46
2020/06/22 05:21:32;;;;;;;1.72;1.41;;;;;;;20.45;55.27;101224.34;;;;-47
2020/06/22 05:24:32;;;;;;;1.73;1.56;;;;;;;20.44;55.30;101228.10;;;;-46
2020/06/22 05:27:32;;;;;;;1.47;1.37;;;;;;;20.43;55.27;101231.41;;;;-47
2020/06/22 05:30:32;;;;;;;1.50;1.40;;;;;;;20.44;55.28;101229.17;;;;-47
2020/06/22 05:33:32;;;;;;;1.54;1.44;;;;;;;20.44;55.27;101235.10;;;;-46
2020/06/22 05:36:32;;;;;;;1.50;1.40;;;;;;;20.44;55.29;101233.19;;;;-47
2020/06/22 05:39:32;;;;;;;1.50;1.40;;;;;;;20.44;55.31;101238.62;;;;-47
2020/06/22 05:42:32;;;;;;;1.46;1.36;;;;;;;20.44;55.27;101241.98;;;;-47
2020/06/22 05:45:32;;;;;;;1.50;1.40;;;;;;;20.44;55.33;101243.83;;;;-47
2020/06/22 05:48:32;;;;;;;1.59;1.49;;;;;;;20.44;55.25;101248.13;;;;-47
2020/06/22 05:51:32;;;;;;;1.50;1.40;;;;;;;20.43;55.29;101247.84;;;;-47
2020/06/22 05:54:32;;;;;;;1.50;1.40;;;;;;;20.43;55.29;101250.53;;;;-47
2020/06/22 05:57:32;;;;;;;1.62;1.52;;;;;;;20.43;55.30;101250.36;;;;-47
2020/06/22 06:00:32;;;;;;;1.60;1.50;;;;;;;20.42;55.24;101253.16;;;;-46
2020/06/22 06:03:32;;;;;;;1.44;1.34;;;;;;;20.43;55.28;101256.12;;;;-47
2020/06/22 06:06:32;;;;;;;1.63;1.53;;;;;;;20.43;55.29;101261.23;;;;-47
2020/06/22 06:09:32;;;;;;;1.43;1.33;;;;;;;20.43;55.31;101263.17;;;;-47
2020/06/22 06:12:32;;;;;;;1.49;1.39;;;;;;;20.43;55.26;101265.36;;;;-47
2020/06/22 06:15:32;;;;;;;1.57;1.47;;;;;;;20.43;55.33;101268.88;;;;-47
2020/06/22 06:18:32;;;;;;;1.50;1.40;;;;;;;20.43;55.29;101267.87;;;;-47
2020/06/22 06:21:32;;;;;;;1.65;1.55;;;;;;;20.42;55.27;101273.30;;;;-47
2020/06/22 06:24:32;;;;;;;1.60;1.50;;;;;;;20.42;55.29;101271.34;;;;-47
2020/06/22 06:27:32;;;;;;;1.60;1.50;;;;;;;20.42;55.32;101274.86;;;;-47
2020/06/22 06:30:32;;;;;;;1.54;1.44;;;;;;;20.42;55.29;101282.86;;;;-46
2020/06/22 06:33:32;;;;;;;1.60;1.50;;;;;;;20.43;55.30;101285.81;;;;-47
2020/06/22 06:36:32;;;;;;;1.55;1.45;;;;;;;20.42;55.30;101279.89;;;;-47
2020/06/22 06:39:32;;;;;;;1.55;1.45;;;;;;;20.42;55.30;101288.80;;;;-47
2020/06/22 06:42:32;;;;;;;1.53;1.43;;;;;;;20.42;55.27;101293.83;;;;-47
2020/06/22 06:45:32;;;;;;;1.53;1.43;;;;;;;20.42;55.25;101293.43;;;;-47
2020/06/22 06:48:32;;;;;;;1.58;1.42;;;;;;;20.42;55.28;101296.91;;;;-46
2020/06/22 06:51:32;;;;;;;1.59;1.49;;;;;;;20.42;55.27;101294.99;;;;-47
2020/06/22 06:54:32;;;;;;;1.57;1.47;;;;;;;20.42;55.24;101302.05;;;;-46
2020/06/22 06:57:32;;;;;;;1.50;1.40;;;;;;;20.42;55.24;101301.31;;;;-47
2020/06/22 07:00:32;;;;;;;1.50;1.40;;;;;;;20.42;55.25;101295.57;;;;-47
2020/06/22 07:03:32;;;;;;;1.50;1.40;;;;;;;20.42;55.27;101302.16;;;;-46
2020/06/22 07:06:32;;;;;;;1.57;1.47;;;;;;;20.42;55.28;101301.55;;;;-47
2020/06/22 07:09:32;;;;;;;1.61;1.51;;;;;;;20.42;55.27;101304.00;;;;-47
2020/06/22 07:12:32;;;;;;;1.57;1.40;;;;;;;20.42;55.26;101305.52;;;;-47
2020/06/22 07:15:32;;;;;;;1.47;1.36;;;;;;;20.43;55.27;101308.97;;;;-47
2020/06/22 07:18:32;;;;;;;1.50;1.40;;;;;;;20.43;55.26;101309.14;;;;-47
2020/06/22 07:21:32;;;;;;;1.55;1.45;;;;;;;20.42;55.24;101307.98;;;;-47
2020/06/22 07:24:32;;;;;;;1.60;1.50;;;;;;;20.42;55.26;101308.86;;;;-46
2020/06/22 07:27:32;;;;;;;1.51;1.41;;;;;;;20.42;55.24;101310.55;;;;-47
2020/06/22 07:30:32;;;;;;;1.60;1.50;;;;;;;20.42;55.24;101309.94;;;;-47
2020/06/22 07:33:32;;;;;;;1.56;1.46;;;;;;;20.43;55.28;101307.30;;;;-47
2020/06/22 07:36:32;;;;;;;1.51;1.41;;;;;;;20.41;55.60;101301.59;;;;-47
2020/06/22 07:39:32;;;;;;;2.47;1.55;;;;;;;20.44;55.55;101299.62;;;;-53
2020/06/22 07:42:32;;;;;;;1.50;1.40;;;;;;;20.46;55.93;101303.59;;;;-51
2020/06/22 07:45:32;;;;;;;1.51;1.41;;;;;;;20.47;55.92;101307.34;;;;-50
2020/06/22 07:48:32;;;;;;;1.83;1.57;;;;;;;20.48;56.03;101308.19;;;;-49
2020/06/22 07:51:32;;;;;;;2.27;1.54;;;;;;;20.50;56.08;101308.02;;;;-49
2020/06/22 07:54:32;;;;;;;5.06;1.62;;;;;;;20.52;56.17;101312.55;;;;-50
2020/06/22 07:57:32;;;;;;;2.26;1.73;;;;;;;20.54;56.26;101314.40;;;;-50
2020/06/22 08:00:32;;;;;;;2.12;1.75;;;;;;;20.54;56.29;101314.05;;;;-46
2020/06/22 08:03:32;;;;;;;1.62;1.52;;;;;;;20.56;56.38;101316.73;;;;-44
2020/06/22 08:06:32;;;;;;;1.85;1.62;;;;;;;20.57;56.33;101318.80;;;;-45
2020/06/22 08:09:32;;;;;;;3.53;1.65;;;;;;;20.59;56.49;101316.18;;;;-50
2020/06/22 08:12:32;;;;;;;3.01;1.62;;;;;;;20.60;56.49;101316.78;;;;-54
2020/06/22 08:15:32;;;;;;;3.03;1.86;;;;;;;20.62;56.42;101314.53;;;;-52
2020/06/22 08:18:32;;;;;;;4.69;1.67;;;;;;;20.63;56.51;101314.48;;;;-49
2020/06/22 08:21:32;;;;;;;1.60;1.50;;;;;;;20.63;56.42;101312.47;;;;-50
2020/06/22 08:24:32;;;;;;;2.70;1.60;;;;;;;20.66;56.28;101318.01;;;;-50
2020/06/22 08:27:32;;;;;;;1.79;1.69;;;;;;;20.66;56.29;101316.83;;;;-48
2020/06/22 08:30:32;;;;;;;2.73;1.68;;;;;;;20.68;56.33;101314.81;;;;-45
2020/06/22 08:33:32;;;;;;;1.76;1.66;;;;;;;20.68;56.35;101303.50;;;;-46
2020/06/22 08:36:32;;;;;;;3.21;1.49;;;;;;;20.70;56.34;101308.20;;;;-49
2020/06/22 08:39:32;;;;;;;2.35;1.59;;;;;;;20.71;56.27;101308.37;;;;-52
2020/06/22 08:42:32;;;;;;;3.07;1.80;;;;;;;20.73;56.16;101306.08;;;;-45
2020/06/22 08:45:32;;;;;;;3.31;1.82;;;;;;;20.73;56.11;101303.40;;;;-45
2020/06/22 08:48:32;;;;;;;2.91;1.65;;;;;;;20.73;56.15;101305.84;;;;-45
2020/06/22 08:51:32;;;;;;;2.78;1.60;;;;;;;20.73;56.10;101309.78;;;;-45
2020/06/22 08:54:32;;;;;;;4.13;1.70;;;;;;;20.74;56.22;101308.03;;;;-48
2020/06/22 08:57:32;;;;;;;6.56;2.04;;;;;;;20.78;56.24;101313.17;;;;-51
2020/06/22 09:00:32;;;;;;;2.95;1.75;;;;;;;20.77;56.18;101314.90;;;;-51
2020/06/22 09:03:32;;;;;;;4.86;1.83;;;;;;;20.79;56.28;101310.53;;;;-58
2020/06/22 09:06:32;;;;;;;5.78;2.04;;;;;;;20.80;56.20;101314.07;;;;-51
2020/06/22 09:09:32;;;;;;;8.27;1.98;;;;;;;20.80;56.07;101316.77;;;;-52
2020/06/22 09:12:32;;;;;;;4.07;1.83;;;;;;;20.81;56.08;101316.51;;;;-52
2020/06/22 09:15:32;;;;;;;2.85;1.75;;;;;;;20.79;56.06;101318.83;;;;-52
2020/06/22 09:18:32;;;;;;;3.59;1.80;;;;;;;20.80;56.05;101321.80;;;;-52
2020/06/22 09:21:32;;;;;;;5.58;1.76;;;;;;;20.78;56.00;101324.52;;;;-52
2020/06/22 09:24:32;;;;;;;5.43;2.03;;;;;;;20.79;55.97;101326.98;;;;-51
2020/06/22 09:27:32;;;;;;;4.00;1.90;;;;;;;20.79;56.00;101327.98;;;;-52
2020/06/22 09:30:32;;;;;;;3.73;1.91;;;;;;;20.79;55.98;101322.95;;;;-52
2020/06/22 09:33:32;;;;;;;2.58;1.89;;;;;;;20.78;55.92;101322.73;;;;-52
2020/06/22 09:36:32;;;;;;;5.64;1.95;;;;;;;20.78;55.89;101325.99;;;;-52
2020/06/22 09:39:32;;;;;;;3.83;1.94;;;;;;;20.78;55.85;101327.00;;;;-51
2020/06/22 09:42:32;;;;;;;2.49;1.96;;;;;;;20.78;55.87;101326.54;;;;-52
2020/06/22 09:45:32;;;;;;;4.07;2.01;;;;;;;20.78;55.82;101326.92;;;;-52
2020/06/22 09:48:32;;;;;;;3.62;1.90;;;;;;;20.77;55.79;101330.97;;;;-52
2020/06/22 09:51:32;;;;;;;3.45;1.78;;;;;;;20.77;55.75;101334.77;;;;-52
2020/06/22 09:54:32;;;;;;;2.40;1.87;;;;;;;20.77;55.73;101335.05;;;;-52
2020/06/22 09:57:32;;;;;;;2.57;1.74;;;;;;;20.78;55.69;101332.03;;;;-51
2020/06/22 10:00:32;;;;;;;3.42;2.01;;;;;;;20.78;55.77;101332.97;;;;-52
2020/06/22 10:03:32;;;;;;;3.28;1.89;;;;;;;20.78;55.73;101334.55;;;;-51
2020/06/22 10:06:32;;;;;;;2.28;1.73;;;;;;;20.78;55.67;101340.09;;;;-52
2020/06/22 10:09:32;;;;;;;2.56;1.87;;;;;;;20.78;55.70;101339.02;;;;-52
2020/06/22 10:12:32;;;;;;;2.45;1.77;;;;;;;20.77;55.72;101333.94;;;;-51
2020/06/22 10:15:32;;;;;;;4.66;1.92;;;;;;;20.78;55.69;101339.59;;;;-51
2020/06/22 10:18:32;;;;;;;2.77;1.97;;;;;;;20.78;55.73;101343.88;;;;-51
2020/06/22 10:21:32;;;;;;;4.99;1.99;;;;;;;20.79;55.87;101335.89;;;;-53
2020/06/22 10:24:32;;;;;;;3.93;1.95;;;;;;;20.80;55.81;101330.16;;;;-49
2020/06/22 10:27:32;;;;;;;4.13;2.14;;;;;;;20.81;55.87;101329.08;;;;-51
2020/06/22 10:30:32;;;;;;;3.21;1.87;;;;;;;20.83;55.95;101332.10;;;;-53
2020/06/22 10:33:32;;;;;;;2.67;1.85;;;;;;;20.85;55.89;101332.17;;;;-56
2020/06/22 10:36:32;;;;;;;3.73;1.93;;;;;;;20.85;55.93;101329.52;;;;-51
2020/06/22 10:39:32;;;;;;;3.07;2.07;;;;;;;20.85;55.92;101329.46;;;;-57
2020/06/22 10:42:32;;;;;;;2.51;1.87;;;;;;;20.86;56.02;101334.23;;;;-55
2020/06/22 10:45:32;;;;;;;3.71;1.87;;;;;;;20.86;56.03;101334.50;;;;-48
2020/06/22 10:48:32;;;;;;;3.11;1.90;;;;;;;20.89;55.99;101337.25;;;;-50
2020/06/22 10:51:32;;;;;;;2.85;1.87;;;;;;;20.89;56.05;101334.73;;;;-54
2020/06/22 10:54:32;;;;;;;3.79;1.93;;;;;;;20.90;56.03;101332.09;;;;-54
2020/06/22 10:57:32;;;;;;;3.29;1.90;;;;;;;20.91;56.00;101336.62;;;;-55
2020/06/22 11:00:32;;;;;;;3.13;1.93;;;;;;;20.92;55.99;101335.73;;;;-57
2020/06/22 11:03:32;;;;;;;2.11;1.91;;;;;;;20.93;55.97;101336.89;;;;-60
2020/06/22 11:06:32;;;;;;;2.59;1.94;;;;;;;20.93;55.95;101334.09;;;;-54
2020/06/22 11:09:32;;;;;;;2.63;1.87;;;;;;;20.93;55.78;101331.29;;;;-54
2020/06/22 11:12:32;;;;;;;4.50;2.01;;;;;;;20.93;55.87;101336.50;;;;-54
2020/06/22 11:15:32;;;;;;;2.71;1.95;;;;;;;20.92;55.89;101326.44;;;;-54
2020/06/22 11:18:32;;;;;;;2.48;1.89;;;;;;;20.92;55.84;101329.62;;;;-55
2020/06/22 11:21:32;;;;;;;2.87;1.97;;;;;;;20.91;55.84;101321.85;;;;-54
2020/06/22 11:24:32;;;;;;;2.90;1.95;;;;;;;20.91;55.81;101324.59;;;;-54
2020/06/22 11:27:32;;;;;;;2.24;1.89;;;;;;;20.91;55.80;101327.28;;;;-54
2020/06/22 11:30:32;;;;;;;2.96;1.99;;;;;;;20.90;55.75;101329.02;;;;-54
2020/06/22 11:33:32;;;;;;;2.35;1.79;;;;;;;20.89;55.69;101333.67;;;;-53
2020/06/22 11:36:32;;;;;;;3.57;1.89;;;;;;;20.89;55.72;101332.33;;;;-54
2020/06/22 11:39:32;;;;;;;2.79;1.97;;;;;;;20.89;55.66;101332.05;;;;-54
2020/06/22 11:42:32;;;;;;;3.30;2.02;;;;;;;20.90;55.68;101337.47;;;;-55
2020/06/22 11:45:32;;;;;;;2.69;2.09;;;;;;;20.89;55.62;101333.99;;;;-55
2020/06/22 11:48:32;;;;;;;2.73;1.97;;;;;;;20.88;55.65;101335.22;;;;-54
2020/06/22 11:51:32;;;;;;;2.75;1.82;;;;;;;20.88;55.66;101333.11;;;;-54
2020/06/22 11:54:32;;;;;;;2.72;2.00;;;;;;;20.88;55.66;101334.00;;;;-55
2020/06/22 11:57:32;;;;;;;2.82;1.99;;;;;;;20.88;55.63;101336.06;;;;-54
2020/06/22 12:00:32;;;;;;;2.50;1.89;;;;;;;20.88;55.63;101337.30;;;;-54
2020/06/22 12:03:32;;;;;;;2.11;1.89;;;;;;;20.87;55.61;101337.25;;;;-53
2020/06/22 12:06:32;;;;;;;1.98;1.75;;;;;;;20.87;55.61;101341.72;;;;-55
2020/06/22 12:09:32;;;;;;;2.21;1.79;;;;;;;20.88;55.54;101339.92;;;;-54
2020/06/22 12:12:32;;;;;;;2.19;1.99;;;;;;;20.88;55.57;101337.91;;;;-54
2020/06/22 12:15:32;;;;;;;3.29;2.05;;;;;;;20.90;55.69;101337.63;;;;-51
2020/06/22 12:18:32;;;;;;;7.56;2.01;;;;;;;20.91;55.78;101334.66;;;;-50
2020/06/22 12:21:32;;;;;;;5.68;2.15;;;;;;;20.90;55.70;101328.95;;;;-50
2020/06/22 12:24:32;;;;;;;6.47;1.99;;;;;;;20.89;55.78;101330.41;;;;-50
2020/06/22 12:27:32;;;;;;;4.78;2.01;;;;;;;20.89;55.68;101327.61;;;;-50
2020/06/22 12:30:32;;;;;;;6.06;2.10;;;;;;;20.89;55.65;101327.45;;;;-50
2020/06/22 12:33:32;;;;;;;3.85;1.97;;;;;;;20.89;55.58;101326.77;;;;-50
2020/06/22 12:36:32;;;;;;;3.48;2.00;;;;;;;20.89;55.62;101328.84;;;;-50
2020/06/22 12:39:32;;;;;;;5.49;1.96;;;;;;;20.89;55.59;101329.35;;;;-50
2020/06/22 12:42:32;;;;;;;5.67;1.90;;;;;;;20.88;55.59;101332.59;;;;-51
2020/06/22 12:45:32;;;;;;;6.48;2.01;;;;;;;20.88;55.57;101329.75;;;;-50
2020/06/22 12:48:32;;;;;;;4.07;2.09;;;;;;;20.87;55.47;101321.91;;;;-51
2020/06/22 12:51:32;;;;;;;7.53;1.98;;;;;;;20.88;55.48;101322.58;;;;-50
2020/06/22 12:54:32;;;;;;;4.67;2.02;;;;;;;20.87;55.53;101320.80;;;;-51
2020/06/22 12:57:32;;;;;;;3.91;2.10;;;;;;;20.88;55.39;101321.91;;;;-50
2020/06/22 13:00:32;;;;;;;4.81;1.97;;;;;;;20.89;55.66;101323.77;;;;-48
2020/06/22 13:03:32;;;;;;;2.82;2.00;;;;;;;20.91;55.69;101322.36;;;;-53
2020/06/22 13:06:32;;;;;;;2.95;1.90;;;;;;;20.94;55.82;101316.28;;;;-51
2020/06/22 13:09:32;;;;;;;4.57;2.13;;;;;;;20.94;55.90;101310.53;;;;-51
2020/06/22 13:12:32;;;;;;;3.84;1.95;;;;;;;20.96;56.03;101313.72;;;;-61
2020/06/22 13:15:32;;;;;;;2.93;1.94;;;;;;;20.97;56.05;101313.83;;;;-45
2020/06/22 13:18:32;;;;;;;3.74;1.89;;;;;;;20.98;56.08;101310.40;;;;-51
2020/06/22 13:21:32;;;;;;;2.24;1.90;;;;;;;20.99;56.00;101311.92;;;;-55
2020/06/22 13:24:32;;;;;;;2.85;1.87;;;;;;;21.00;56.07;101317.45;;;;-56
2020/06/22 13:27:32;;;;;;;3.39;1.93;;;;;;;21.00;56.13;101316.84;;;;-50
2020/06/22 13:30:32;;;;;;;4.47;1.90;;;;;;;21.00;56.12;101317.89;;;;-54
2020/06/22 13:33:32;;;;;;;4.99;1.87;;;;;;;21.02;56.14;101314.86;;;;-52
2020/06/22 13:36:32;;;;;;;4.33;2.13;;;;;;;21.04;56.08;101316.10;;;;-50
2020/06/22 13:39:32;;;;;;;4.49;2.03;;;;;;;21.03;56.11;101311.72;;;;-52
2020/06/22 13:42:32;;;;;;;4.18;1.95;;;;;;;21.03;56.06;101309.04;;;;-51
2020/06/22 13:45:32;;;;;;;3.64;1.91;;;;;;;21.05;56.07;101304.50;;;;-51
2020/06/22 13:48:32;;;;;;;7.49;2.21;;;;;;;21.05;56.09;101306.34;;;;-51
2020/06/22 13:51:32;;;;;;;9.62;2.11;;;;;;;21.07;56.18;101309.37;;;;-51
2020/06/22 13:54:32;;;;;;;5.05;2.15;;;;;;;21.06;56.03;101300.80;;;;-52
2020/06/22 13:57:32;;;;;;;3.95;2.01;;;;;;;21.05;56.08;101298.50;;;;-51
2020/06/22 14:00:32;;;;;;;4.07;1.87;;;;;;;21.06;55.96;101302.60;;;;-53
2020/06/22 14:03:32;;;;;;;3.99;1.99;;;;;;;21.05;55.96;101296.44;;;;-52
2020/06/22 14:06:32;;;;;;;4.90;1.99;;;;;;;21.05;56.02;101295.77;;;;-52
2020/06/22 14:09:32;;;;;;;4.68;2.20;;;;;;;21.06;56.04;101293.41;;;;-55
2020/06/22 14:12:32;;;;;;;5.87;2.21;;;;;;;21.07;55.90;101294.36;;;;-54
2020/06/22 14:15:32;;;;;;;3.80;2.03;;;;;;;21.07;56.13;101289.42;;;;-48
2020/06/22 14:18:32;;;;;;;4.81;2.15;;;;;;;21.09;56.02;101289.92;;;;-51
2020/06/22 14:21:32;;;;;;;3.57;1.97;;;;;;;21.09;56.07;101293.39;;;;-50
2020/06/22 14:24:32;;;;;;;3.41;1.85;;;;;;;21.10;56.08;101293.72;;;;-54
2020/06/22 14:27:32;;;;;;;3.77;1.94;;;;;;;21.12;56.02;101295.12;;;;-49
2020/06/22 14:38:02;;;;;;;4.15;2.21;;;;;;;21.10;55.88;101285.17;;;;-50
2020/06/22 14:42:23;;;;;;;4.89;1.90;;;;;;;21.11;56.05;101279.95;;;;-50
2020/06/22 14:45:43;;;;;;;3.83;1.91;;;;;;;21.10;55.83;101281.48;;;;-48
2020/06/22 14:48:32;;;;;;;3.60;1.93;;;;;;;21.10;55.72;101281.12;;;;-48
2020/06/22 14:51:32;;;;;;;2.77;1.86;;;;;;;21.08;55.66;101275.98;;;;-47
2020/06/22 14:54:32;;;;;;;4.06;1.86;;;;;;;21.08;55.69;101274.76;;;;-47
2020/06/22 14:57:32;;;;;;;6.17;2.01;;;;;;;21.08;55.63;101273.65;;;;-48
2020/06/22 15:00:32;;;;;;;3.17;1.91;;;;;;;21.07;55.62;101276.16;;;;-47
2020/06/22 15:03:34;;;;;;;4.38;1.85;;;;;;;21.07;55.55;101273.26;;;;-48
2020/06/22 15:06:34;;;;;;;7.32;2.11;;;;;;;21.06;55.63;101273.19;;;;-48
2020/06/22 15:09:32;;;;;;;2.37;1.84;;;;;;;21.06;55.53;101270.00;;;;-49
2020/06/22 15:12:32;;;;;;;2.62;1.80;;;;;;;21.06;55.54;101266.16;;;;-48
2020/06/22 15:15:32;;;;;;;4.29;1.88;;;;;;;21.05;55.47;101269.17;;;;-48
2020/06/22 15:18:32;;;;;;;4.87;1.95;;;;;;;21.04;55.52;101266.53;;;;-48
2020/06/22 15:21:32;;;;;;;3.04;1.84;;;;;;;21.05;55.52;101264.97;;;;-48
2020/06/22 15:24:32;;;;;;;4.43;1.95;;;;;;;21.06;55.49;101261.12;;;;-48
2020/06/22 15:27:32;;;;;;;3.63;1.91;;;;;;;21.04;55.43;101258.09;;;;-48
2020/06/22 15:30:32;;;;;;;4.18;1.91;;;;;;;21.04;55.44;101262.80;;;;-48
2020/06/22 15:33:32;;;;;;;3.36;1.83;;;;;;;21.04;55.46;101259.95;;;;-48
2020/06/22 15:36:32;;;;;;;4.89;1.90;;;;;;;21.04;55.49;101255.81;;;;-48
2020/06/22 15:39:32;;;;;;;4.32;1.82;;;;;;;21.06;55.49;101251.42;;;;-50
2020/06/22 15:42:32;;;;;;;3.68;1.91;;;;;;;21.08;55.66;101255.88;;;;-51
2020/06/22 15:45:32;;;;;;;5.39;1.92;;;;;;;21.10;55.57;101250.73;;;;-50
2020/06/22 15:48:32;;;;;;;4.29;1.84;;;;;;;21.11;55.66;101253.47;;;;-51
2020/06/22 15:51:32;;;;;;;3.69;2.13;;;;;;;21.10;55.69;101250.44;;;;-50
2020/06/22 15:54:32;;;;;;;4.25;1.92;;;;;;;21.10;55.61;101247.52;;;;-50
2020/06/22 15:57:32;;;;;;;5.09;2.00;;;;;;;21.12;55.58;101252.97;;;;-49
2020/06/22 16:00:32;;;;;;;4.85;2.05;;;;;;;21.13;55.61;101251.44;;;;-51
2020/06/22 16:03:32;;;;;;;3.75;1.92;;;;;;;21.13;55.67;101248.81;;;;-50
2020/06/22 16:06:32;;;;;;;2.69;1.78;;;;;;;21.14;55.75;101247.02;;;;-47
2020/06/22 16:09:32;;;;;;;3.48;1.79;;;;;;;21.15;55.54;101241.25;;;;-47
2020/06/22 16:12:32;;;;;;;2.38;1.73;;;;;;;21.13;55.73;101239.08;;;;-48
2020/06/22 16:15:32;;;;;;;2.13;1.89;;;;;;;21.13;55.64;101239.30;;;;-47
2020/06/22 16:18:32;;;;;;;2.87;1.65;;;;;;;21.12;55.59;101241.37;;;;-47
2020/06/22 16:21:32;;;;;;;2.69;2.01;;;;;;;21.11;55.67;101238.02;;;;-47
2020/06/22 16:24:32;;;;;;;2.62;1.69;;;;;;;21.11;55.63;101244.74;;;;-47
2020/06/22 16:27:32;;;;;;;3.22;1.70;;;;;;;21.09;55.60;101239.08;;;;-47
2020/06/22 16:30:32;;;;;;;3.81;1.79;;;;;;;21.10;55.56;101243.89;;;;-48
2020/06/22 16:33:32;;;;;;;2.29;1.76;;;;;;;21.09;55.55;101240.14;;;;-48
2020/06/22 16:36:32;;;;;;;2.17;1.69;;;;;;;21.09;55.50;101241.45;;;;-48
2020/06/22 16:39:32;;;;;;;3.10;1.79;;;;;;;21.08;55.48;101240.22;;;;-47
2020/06/22 16:42:32;;;;;;;2.57;1.67;;;;;;;21.09;55.47;101245.81;;;;-47
2020/06/22 16:45:32;;;;;;;2.65;1.84;;;;;;;21.08;55.51;101242.84;;;;-47
2020/06/22 16:48:32;;;;;;;1.92;1.73;;;;;;;21.08;55.40;101243.41;;;;-48
2020/06/22 16:51:32;;;;;;;2.21;1.79;;;;;;;21.07;55.37;101240.38;;;;-47